createdAt,value
2022-12-10T00:00:37.448Z,35.92
2022-12-10T00:03:10.204Z,33.08
2022-12-10T00:05:43.015Z,36.38
2022-12-10T00:08:16.284Z,29.37
2022-12-10T00:10:49.227Z,37.38
2022-12-10T00:13:22.269Z,33.35
2022-12-10T00:15:55.169Z,31.70
2022-12-10T00:18:28.138Z,33.23
2022-12-10T00:21:03.018Z,32.47
2022-12-10T00:23:36.913Z,35.33
2022-12-10T00:26:14.016Z,31.68
2022-12-10T00:28:48.233Z,33.23
2022-12-10T00:31:25.242Z,36.63
2022-12-10T00:34:00.249Z,34.90
2022-12-10T00:36:43.597Z,33.88
2022-12-10T00:39:21.865Z,35.80
2022-12-10T00:41:54.796Z,34.92
2022-12-10T00:44:27.811Z,39.75
2022-12-10T00:47:00.778Z,36.68
2022-12-10T00:49:34.238Z,38.53
2022-12-10T00:52:07.292Z,43.60
2022-12-10T00:54:40.171Z,39.80
2022-12-10T00:57:13.467Z,37.93
2022-12-10T00:59:47.225Z,34.35
2022-12-10T01:02:20.405Z,42.85
2022-12-10T01:04:55.590Z,34.90
2022-12-10T01:07:29.550Z,42.40
2022-12-10T01:10:02.563Z,40.30
2022-12-10T01:12:35.520Z,36.45
2022-12-10T01:19:21.935Z,35.13
2022-12-10T01:21:56.323Z,40.20
2022-12-10T01:24:30.650Z,38.30
2022-12-10T01:30:30.526Z,44.50
2022-12-10T01:39:45.303Z,44.48
2022-12-10T01:42:18.415Z,41.77
2022-12-10T01:45:02.481Z,43.15
2022-12-10T01:54:34.162Z,38.73
2022-12-10T01:57:11.280Z,46.63
2022-12-10T01:59:45.599Z,44.27
2022-12-10T02:02:42.261Z,39.90
2022-12-10T02:05:28.789Z,43.30
2022-12-10T02:08:29.700Z,36.38
2022-12-10T02:11:17.731Z,40.92
2022-12-10T02:13:58.303Z,40.70
2022-12-10T02:16:42.231Z,37.90
2022-12-10T02:19:52.377Z,39.30
2022-12-10T02:22:30.488Z,42.17
2022-12-10T02:25:05.365Z,37.60
2022-12-10T02:27:44.452Z,45.35
2022-12-10T02:30:18.442Z,39.45
2022-12-10T02:32:52.387Z,46.13
2022-12-10T02:35:29.018Z,35.17
2022-12-10T02:38:15.133Z,35.30
2022-12-10T02:40:51.883Z,38.88
2022-12-10T02:43:26.357Z,43.00
2022-12-10T02:46:01.427Z,42.93
2022-12-10T02:48:36.632Z,42.00
2022-12-10T02:51:09.445Z,40.83
2022-12-10T02:53:47.172Z,40.70
2022-12-10T02:56:27.813Z,39.95
2022-12-10T02:59:20.358Z,46.28
2022-12-10T03:02:20.840Z,39.73
2022-12-10T03:05:01.024Z,46.00
2022-12-10T03:07:41.823Z,40.55
2022-12-10T03:10:24.974Z,40.67
2022-12-10T03:13:04.866Z,43.00
2022-12-10T03:15:41.006Z,40.98
2022-12-10T03:18:14.043Z,43.95
2022-12-10T03:20:48.390Z,42.65
2022-12-10T03:23:22.160Z,46.25
2022-12-10T03:28:27.428Z,46.28
2022-12-10T03:31:00.736Z,42.83
2022-12-10T03:33:34.070Z,47.15
2022-12-10T03:36:08.949Z,43.63
2022-12-10T03:38:42.811Z,46.90
2022-12-10T03:41:16.020Z,40.17
2022-12-10T03:44:01.139Z,40.70
2022-12-10T03:46:34.617Z,46.13
2022-12-10T03:49:09.216Z,49.80
2022-12-10T03:51:41.997Z,42.73
2022-12-10T03:54:14.853Z,40.95
2022-12-10T03:56:49.178Z,43.25
2022-12-10T03:59:22.100Z,41.40
2022-12-10T04:01:55.917Z,41.25
2022-12-10T04:04:28.816Z,41.05
2022-12-10T04:07:01.921Z,35.43
2022-12-10T04:09:35.500Z,38.93
2022-12-10T04:12:09.583Z,39.15
2022-12-10T04:15:00.509Z,37.08
2022-12-10T04:17:35.495Z,37.30
2022-12-10T04:20:11.137Z,41.15
2022-12-10T04:23:01.735Z,36.55
2022-12-10T04:25:53.022Z,37.05
2022-12-10T04:28:25.914Z,38.58
2022-12-10T04:30:58.955Z,34.03
2022-12-10T04:33:32.724Z,44.70
2022-12-10T04:36:07.094Z,40.70
2022-12-10T04:38:39.928Z,38.35
2022-12-10T04:41:14.616Z,39.83
2022-12-10T04:43:47.541Z,37.03
2022-12-10T04:46:20.639Z,41.23
2022-12-10T04:48:53.575Z,36.73
2022-12-10T04:51:27.532Z,39.35
2022-12-10T04:54:02.492Z,42.33
2022-12-10T04:56:37.754Z,43.08
2022-12-10T04:59:11.713Z,41.15
2022-12-10T05:01:44.720Z,41.02
2022-12-10T05:04:20.268Z,43.25
2022-12-10T05:06:53.311Z,42.27
2022-12-10T05:09:26.536Z,37.08
2022-12-10T05:11:59.471Z,41.25
2022-12-10T05:14:34.592Z,42.40
2022-12-10T05:17:09.679Z,43.40
2022-12-10T05:19:44.152Z,46.68
2022-12-10T05:22:35.526Z,41.10
2022-12-10T05:25:10.274Z,45.92
2022-12-10T05:27:43.308Z,41.68
2022-12-10T05:30:16.041Z,43.40
2022-12-10T05:32:49.387Z,40.67
2022-12-10T05:35:22.677Z,43.38
2022-12-10T05:37:56.055Z,41.35
2022-12-10T05:40:28.933Z,51.57
2022-12-10T05:43:02.180Z,42.43
2022-12-10T05:45:35.831Z,43.55
2022-12-10T05:48:10.461Z,42.95
2022-12-10T05:50:43.844Z,46.63
2022-12-10T05:53:18.430Z,43.87
2022-12-10T05:55:51.384Z,39.05
2022-12-10T05:58:24.208Z,39.50
2022-12-10T06:00:58.902Z,43.20
2022-12-10T06:06:05.130Z,42.38
2022-12-10T06:08:38.677Z,42.38
2022-12-10T06:11:14.021Z,44.80
2022-12-10T06:13:51.754Z,44.27
2022-12-10T06:16:22.924Z,47.95
2022-12-10T06:18:56.236Z,44.67
2022-12-10T06:21:29.327Z,48.20
2022-12-10T06:24:01.971Z,49.30
2022-12-10T06:26:35.223Z,48.42
2022-12-10T06:29:08.096Z,50.95
2022-12-10T06:31:41.407Z,48.90
2022-12-10T06:34:14.470Z,44.23
2022-12-10T06:36:47.709Z,46.68
2022-12-10T06:39:20.692Z,45.80
2022-12-10T06:41:58.841Z,49.25
2022-12-10T06:44:28.888Z,48.10
2022-12-10T06:47:01.785Z,42.55
2022-12-10T06:49:35.808Z,45.28
2022-12-10T06:52:09.636Z,44.55
2022-12-10T06:54:43.443Z,46.63
2022-12-10T06:57:16.071Z,40.48
2022-12-10T06:59:49.282Z,41.42
2022-12-10T07:02:22.468Z,42.77
2022-12-10T07:04:57.229Z,42.20
2022-12-10T07:07:30.322Z,55.38
2022-12-10T07:10:03.420Z,42.83
2022-12-10T07:12:37.266Z,47.03
2022-12-10T07:15:11.536Z,46.15
2022-12-10T07:17:44.458Z,43.15
2022-12-10T07:20:17.518Z,41.85
2022-12-10T07:22:50.447Z,45.85
2022-12-10T07:25:23.346Z,37.42
2022-12-10T07:27:57.980Z,40.52
2022-12-10T07:30:31.081Z,40.80
2022-12-10T07:33:04.093Z,41.42
2022-12-10T07:35:41.413Z,42.53
2022-12-10T07:38:13.627Z,53.68
2022-12-10T07:40:46.875Z,45.98
2022-12-10T07:43:20.795Z,41.60
2022-12-10T07:45:53.571Z,39.27
2022-12-10T07:48:26.955Z,43.73
2022-12-10T07:51:00.627Z,40.40
2022-12-10T07:53:34.520Z,55.90
2022-12-10T07:56:08.434Z,40.43
2022-12-10T07:58:46.316Z,40.65
2022-12-10T08:01:23.718Z,45.48
2022-12-10T08:03:58.376Z,45.20
2022-12-10T08:06:32.013Z,45.17
2022-12-10T08:09:05.281Z,44.63
2022-12-10T08:11:38.702Z,44.40
2022-12-10T08:14:11.692Z,37.85
2022-12-10T08:16:44.914Z,45.15
2022-12-10T08:19:22.804Z,42.05
2022-12-10T08:21:52.981Z,42.95
2022-12-10T08:24:26.096Z,43.58
2022-12-10T08:26:59.061Z,44.03
2022-12-10T08:29:32.956Z,46.90
2022-12-10T08:32:06.274Z,41.25
2022-12-10T08:34:39.341Z,51.67
2022-12-10T08:37:12.596Z,43.98
2022-12-10T08:39:45.959Z,48.75
2022-12-10T08:42:19.041Z,49.38
2022-12-10T08:44:52.242Z,49.35
2022-12-10T08:47:25.767Z,47.83
2022-12-10T08:49:58.849Z,42.17
2022-12-10T08:52:32.473Z,43.63
2022-12-10T08:55:07.140Z,43.00
2022-12-10T09:00:14.723Z,50.20
2022-12-10T09:02:49.193Z,53.13
2022-12-10T09:05:21.995Z,48.28
2022-12-10T09:07:54.913Z,44.50
2022-12-10T09:10:27.830Z,52.98
2022-12-10T09:13:03.421Z,58.17
2022-12-10T09:15:35.557Z,43.78
2022-12-10T09:18:09.365Z,58.28
2022-12-10T09:20:42.404Z,49.90
2022-12-10T09:23:15.423Z,44.90
2022-12-10T09:25:48.991Z,42.50
2022-12-10T09:28:21.765Z,51.65
2022-12-10T09:31:03.198Z,47.95
2022-12-10T09:33:37.009Z,54.85
2022-12-10T09:36:12.226Z,50.98
2022-12-10T09:38:46.948Z,53.08
2022-12-10T09:41:38.470Z,50.20
2022-12-10T09:44:16.344Z,46.92
2022-12-10T09:46:58.806Z,50.75
2022-12-10T09:50:17.502Z,65.00
2022-12-10T09:52:52.221Z,60.17
2022-12-10T09:55:44.979Z,67.35
2022-12-10T09:58:27.799Z,53.83
2022-12-10T10:01:06.857Z,59.25
2022-12-10T10:03:41.914Z,59.27
2022-12-10T10:06:18.629Z,52.27
2022-12-10T10:08:55.353Z,47.03
2022-12-10T10:11:36.865Z,47.05
2022-12-10T10:14:17.070Z,51.58
2022-12-10T10:17:05.718Z,50.05
2022-12-10T10:19:40.762Z,55.03
2022-12-10T10:22:14.197Z,47.33
2022-12-10T10:24:48.759Z,55.93
2022-12-10T10:27:28.645Z,46.30
2022-12-10T10:30:04.083Z,50.28
2022-12-10T10:32:46.557Z,45.55
2022-12-10T10:35:32.986Z,51.05
2022-12-10T10:38:21.793Z,51.37
2022-12-10T10:40:59.157Z,50.95
2022-12-10T10:43:45.459Z,53.17
2022-12-10T10:46:24.870Z,58.02
2022-12-10T10:49:18.841Z,57.43
2022-12-10T10:51:51.883Z,63.38
2022-12-10T10:54:42.835Z,47.05
2022-12-10T10:57:37.793Z,57.75
2022-12-10T11:03:00.774Z,64.77
2022-12-10T11:05:36.409Z,60.17
2022-12-10T11:08:25.308Z,57.83
2022-12-10T11:11:07.480Z,56.70
2022-12-10T11:13:42.367Z,54.38
2022-12-10T11:16:24.696Z,52.70
2022-12-10T11:19:06.928Z,48.90
2022-12-10T11:21:39.880Z,56.50
2022-12-10T11:24:17.656Z,60.33
2022-12-10T11:27:15.447Z,54.23
2022-12-10T11:29:53.314Z,55.35
2022-12-10T11:32:50.115Z,52.98
2022-12-10T11:35:43.064Z,51.42
2022-12-10T11:38:46.315Z,51.73
2022-12-10T11:41:41.773Z,54.70
2022-12-10T11:44:35.866Z,65.25
2022-12-10T11:47:37.826Z,57.27
2022-12-10T11:50:33.223Z,59.88
2022-12-10T11:53:13.571Z,44.20
2022-12-10T11:56:06.073Z,43.05
2022-12-10T11:59:01.401Z,44.18
2022-12-10T12:01:47.829Z,42.48
2022-12-10T12:04:44.217Z,44.48
2022-12-10T12:07:38.118Z,44.75
2022-12-10T12:10:24.744Z,42.83
2022-12-10T12:13:05.002Z,40.00
2022-12-10T12:15:51.677Z,37.80
2022-12-10T12:18:32.123Z,43.70
2022-12-10T12:21:12.657Z,41.00
2022-12-10T12:24:20.357Z,40.90
2022-12-10T12:27:01.013Z,42.95
2022-12-10T12:29:48.081Z,38.05
2022-12-10T12:32:37.602Z,44.20
2022-12-10T12:35:20.367Z,34.78
2022-12-10T12:38:18.099Z,42.73
2022-12-10T12:40:58.719Z,39.75
2022-12-10T12:43:55.212Z,40.73
2022-12-10T12:46:41.836Z,38.30
2022-12-10T12:49:22.574Z,37.03
2022-12-10T12:52:00.421Z,37.75
2022-12-10T12:54:35.687Z,39.58
2022-12-10T12:57:16.989Z,39.95
2022-12-10T13:00:10.899Z,39.40
2022-12-10T13:03:12.307Z,40.90
2022-12-10T13:05:45.233Z,39.83
2022-12-10T13:08:26.584Z,37.17
2022-12-10T13:11:31.251Z,37.48
2022-12-10T13:14:18.871Z,37.35
2022-12-10T13:16:56.259Z,38.95
2022-12-10T13:19:31.901Z,42.25
2022-12-10T13:22:08.985Z,39.05
2022-12-10T13:24:46.126Z,38.38
2022-12-10T13:27:36.113Z,38.00
2022-12-10T13:30:31.777Z,39.33
2022-12-10T13:33:15.467Z,37.58
2022-12-10T13:36:09.038Z,39.48
2022-12-10T13:38:44.175Z,40.03
2022-12-10T13:41:36.656Z,42.78
2022-12-10T13:44:37.578Z,41.95
2022-12-10T13:47:36.404Z,44.53
2022-12-10T13:50:22.863Z,39.18
2022-12-10T13:53:19.043Z,42.45
2022-12-10T13:56:23.891Z,44.93
2022-12-10T13:59:01.796Z,46.63
2022-12-10T14:01:48.453Z,51.10
2022-12-10T14:04:56.660Z,45.58
2022-12-10T14:07:33.291Z,55.38
2022-12-10T14:10:07.887Z,57.17
2022-12-10T14:12:43.028Z,50.52
2022-12-10T14:15:25.049Z,51.13
2022-12-10T14:18:16.850Z,45.43
2022-12-10T14:20:53.353Z,47.33
2022-12-10T14:23:34.754Z,64.60
2022-12-10T14:26:15.264Z,43.50
2022-12-10T14:28:53.005Z,39.35
2022-12-10T14:31:32.860Z,43.92
2022-12-10T14:34:11.065Z,41.18
2022-12-10T14:36:52.229Z,41.77
2022-12-10T14:39:34.625Z,46.50
2022-12-10T14:42:10.392Z,48.63
2022-12-10T14:44:43.781Z,38.60
2022-12-10T14:47:21.226Z,42.20
2022-12-10T14:49:57.206Z,38.45
2022-12-10T14:52:36.732Z,43.73
2022-12-10T14:55:21.280Z,43.33
2022-12-10T14:58:04.288Z,45.30
2022-12-10T15:00:40.177Z,43.70
2022-12-10T15:03:15.943Z,46.85
2022-12-10T15:06:02.015Z,40.12
2022-12-10T15:08:35.209Z,43.65
2022-12-10T15:11:08.416Z,41.48
2022-12-10T15:13:43.668Z,37.42
2022-12-10T15:16:32.846Z,40.98
2022-12-10T15:19:25.384Z,35.78
2022-12-10T15:22:21.739Z,39.65
2022-12-10T15:24:54.476Z,39.53
2022-12-10T15:27:28.698Z,42.20
2022-12-10T15:30:01.917Z,40.03
2022-12-10T15:32:35.051Z,39.88
2022-12-10T15:35:18.230Z,38.78
2022-12-10T15:37:49.681Z,33.48
2022-12-10T15:40:33.275Z,36.25
2022-12-10T15:43:30.741Z,39.98
2022-12-10T15:46:03.973Z,39.33
2022-12-10T15:48:37.271Z,39.03
2022-12-10T15:51:11.363Z,37.67
2022-12-10T15:53:46.706Z,38.13
2022-12-10T15:56:19.740Z,36.42
2022-12-10T15:58:52.676Z,38.53
2022-12-10T16:01:25.650Z,39.10
2022-12-10T16:03:58.791Z,37.58
2022-12-10T16:06:32.448Z,38.23
2022-12-10T16:09:05.341Z,45.23
2022-12-10T16:11:38.544Z,40.20
2022-12-10T16:14:14.699Z,37.83
2022-12-10T16:16:47.723Z,37.58
2022-12-10T16:19:20.802Z,36.33
2022-12-10T16:21:53.831Z,36.70
2022-12-10T16:24:27.391Z,40.03
2022-12-10T16:27:00.508Z,37.20
2022-12-10T16:29:33.714Z,40.23
2022-12-10T16:32:06.664Z,38.25
2022-12-10T16:34:40.627Z,45.55
2022-12-10T16:37:13.689Z,38.00
2022-12-10T16:39:51.429Z,39.10
2022-12-10T16:42:21.211Z,36.05
2022-12-10T16:44:54.246Z,37.05
2022-12-10T16:47:27.259Z,40.08
2022-12-10T16:50:01.065Z,41.37
2022-12-10T16:52:34.953Z,36.03
2022-12-10T16:55:09.203Z,43.08
2022-12-10T17:00:23.636Z,35.83
2022-12-10T17:02:58.083Z,39.67
2022-12-10T17:05:40.702Z,38.83
2022-12-10T17:08:14.692Z,36.60
2022-12-10T17:11:06.678Z,36.08
2022-12-10T17:13:40.657Z,40.33
2022-12-10T17:16:18.509Z,42.88
2022-12-10T17:18:52.217Z,37.30
2022-12-10T17:21:25.916Z,38.70
2022-12-10T17:23:58.939Z,37.27
2022-12-10T17:26:34.263Z,38.55
2022-12-10T17:29:15.123Z,36.88
2022-12-10T17:31:48.761Z,37.90
2022-12-10T17:34:23.549Z,37.33
2022-12-10T17:36:56.679Z,35.40
2022-12-10T17:39:30.262Z,41.63
2022-12-10T17:42:03.548Z,41.37
2022-12-10T17:44:38.052Z,36.95
2022-12-10T17:47:25.342Z,37.63
2022-12-10T17:50:00.026Z,39.00
2022-12-10T17:52:33.848Z,39.92
2022-12-10T17:55:07.452Z,40.23
2022-12-10T17:57:40.296Z,38.27
2022-12-10T18:00:21.728Z,38.35
2022-12-10T18:02:55.184Z,39.15
2022-12-10T18:05:28.175Z,43.75
2022-12-10T18:08:02.373Z,42.98
2022-12-10T18:10:37.925Z,36.05
2022-12-10T18:13:11.706Z,71.30
2022-12-10T18:15:45.448Z,101.27
2022-12-10T18:18:18.587Z,59.10
2022-12-10T18:20:51.498Z,54.00
2022-12-10T18:23:24.575Z,51.05
2022-12-10T18:25:57.851Z,55.90
2022-12-10T18:28:37.102Z,40.38
2022-12-10T18:31:13.656Z,40.58
2022-12-10T18:33:51.153Z,43.28
2022-12-10T18:36:28.809Z,50.23
2022-12-10T18:39:07.011Z,46.02
2022-12-10T18:41:39.948Z,46.40
2022-12-10T18:44:13.716Z,54.20
2022-12-10T18:46:46.890Z,52.35
2022-12-10T18:49:20.161Z,54.93
2022-12-10T18:51:53.295Z,42.25
2022-12-10T18:54:26.335Z,44.23
2022-12-10T18:57:31.771Z,46.73
2022-12-10T18:59:34.236Z,48.55
2022-12-10T19:02:07.430Z,42.75
2022-12-10T19:04:42.494Z,50.65
2022-12-10T19:07:15.879Z,35.73
2022-12-10T19:09:51.043Z,49.75
2022-12-10T19:12:23.977Z,49.70
2022-12-10T19:14:56.829Z,43.38
2022-12-10T19:17:30.030Z,45.28
2022-12-10T19:20:03.041Z,42.40
2022-12-10T19:22:36.154Z,45.45
2022-12-10T19:25:10.424Z,39.10
2022-12-10T19:27:43.717Z,41.95
2022-12-10T19:30:28.511Z,41.35
2022-12-10T19:33:02.465Z,40.92
2022-12-10T19:35:35.595Z,46.90
2022-12-10T19:38:08.311Z,43.55
2022-12-10T19:40:42.861Z,45.88
2022-12-10T19:43:15.694Z,39.08
2022-12-10T19:45:48.705Z,49.33
2022-12-10T19:48:21.899Z,47.90
2022-12-10T19:50:54.740Z,46.73
2022-12-10T19:53:27.975Z,37.25
2022-12-10T19:56:00.995Z,37.33
2022-12-10T19:58:34.492Z,41.45
2022-12-10T20:01:08.151Z,46.67
2022-12-10T20:03:41.379Z,40.40
2022-12-10T20:06:22.687Z,45.63
2022-12-10T20:08:56.081Z,39.78
2022-12-10T20:11:29.836Z,44.70
2022-12-10T20:14:02.657Z,36.90
2022-12-10T20:16:36.322Z,41.87
2022-12-10T20:19:12.153Z,43.95
2022-12-10T20:21:45.317Z,44.63
2022-12-10T20:24:18.485Z,45.87
2022-12-10T20:26:53.388Z,40.80
2022-12-10T20:32:01.462Z,41.85
2022-12-10T20:37:07.521Z,42.95
2022-12-10T20:39:40.443Z,42.80
2022-12-10T20:42:16.016Z,36.80
2022-12-10T20:44:49.265Z,41.88
2022-12-10T20:47:22.247Z,42.43
2022-12-10T20:49:55.078Z,39.05
2022-12-10T20:52:28.478Z,40.13
2022-12-10T20:55:02.659Z,37.80
2022-12-10T20:57:35.997Z,42.55
2022-12-10T21:00:16.267Z,39.85
2022-12-10T21:02:48.262Z,38.63
2022-12-10T21:05:21.912Z,41.35
2022-12-10T21:07:55.312Z,39.18
2022-12-10T21:10:32.833Z,42.53
2022-12-10T21:13:07.644Z,42.75
2022-12-10T21:15:41.312Z,39.00
2022-12-10T21:18:15.070Z,43.30
2022-12-10T21:20:48.462Z,40.95
2022-12-10T21:23:27.701Z,36.98
2022-12-10T21:26:00.788Z,43.60
2022-12-10T21:28:33.720Z,39.10
2022-12-10T21:31:07.433Z,39.27
2022-12-10T21:33:40.663Z,37.78
2022-12-10T21:36:15.741Z,41.83
2022-12-10T21:38:48.757Z,35.48
2022-12-10T21:41:43.055Z,40.17
2022-12-10T21:44:17.537Z,37.58
2022-12-10T21:46:50.379Z,37.13
2022-12-10T21:49:23.413Z,36.42
2022-12-10T21:52:00.596Z,31.23
2022-12-10T21:54:34.047Z,34.60
2022-12-10T21:57:07.515Z,31.70
2022-12-10T21:59:40.794Z,36.97
2022-12-10T22:02:13.830Z,37.63
2022-12-10T22:04:46.759Z,34.00
2022-12-10T22:07:19.985Z,31.40
2022-12-10T22:09:53.001Z,32.33
2022-12-10T22:12:26.026Z,28.20
2022-12-10T22:14:59.233Z,31.97
2022-12-10T22:17:32.205Z,27.67
2022-12-10T22:20:06.227Z,27.90
2022-12-10T22:22:39.519Z,31.55
2022-12-10T22:25:12.819Z,27.73
2022-12-10T22:27:46.191Z,27.82
2022-12-10T22:30:19.344Z,35.10
2022-12-10T22:32:54.041Z,28.83
2022-12-10T22:35:27.161Z,30.72
2022-12-10T22:38:00.150Z,28.12
2022-12-10T22:40:33.637Z,28.75
2022-12-10T22:43:40.941Z,29.63
2022-12-10T22:45:45.608Z,31.02
2022-12-10T22:48:18.466Z,29.02
2022-12-10T22:50:51.650Z,25.40
2022-12-10T22:53:24.442Z,25.62
2022-12-10T22:56:02.710Z,26.12
2022-12-10T22:58:36.458Z,27.20
2022-12-10T23:01:18.210Z,27.82
2022-12-10T23:03:56.002Z,27.73
2022-12-10T23:06:29.401Z,23.65
2022-12-10T23:09:02.355Z,26.35
2022-12-10T23:11:35.170Z,26.35
2022-12-10T23:14:08.820Z,27.70
2022-12-10T23:16:42.331Z,25.73
2022-12-10T23:19:15.479Z,27.13
2022-12-10T23:21:48.407Z,28.95
2022-12-10T23:24:21.913Z,24.27
2022-12-10T23:26:55.008Z,29.80
2022-12-10T23:29:28.297Z,26.80
2022-12-10T23:32:01.384Z,30.50
2022-12-10T23:34:38.933Z,28.15
2022-12-10T23:37:11.905Z,32.42
2022-12-10T23:39:44.867Z,31.95
2022-12-10T23:42:17.823Z,28.27
2022-12-10T23:44:51.733Z,32.20
2022-12-10T23:47:25.050Z,36.23
2022-12-10T23:49:57.783Z,32.83
2022-12-10T23:52:30.634Z,33.40
2022-12-10T23:55:03.834Z,30.68
2022-12-10T23:57:37.068Z,28.75
